createdAt,value
2022-08-28T00:04:52.103Z,22
2022-08-28T00:14:43.802Z,22
2022-08-28T00:51:18.751Z,21
2022-08-28T01:02:24.151Z,21
2022-08-28T01:13:41.204Z,21
2022-08-28T01:25:14.580Z,21
2022-08-28T01:37:04.178Z,21
2022-08-28T01:48:57.146Z,21
2022-08-28T02:01:15.350Z,21
2022-08-28T02:13:39.382Z,21
2022-08-28T02:26:20.626Z,21
2022-08-28T02:39:19.346Z,21
2022-08-28T02:52:41.160Z,20
2022-08-28T03:06:18.228Z,20
2022-08-28T03:20:12.306Z,20
2022-08-28T03:34:26.138Z,20
2022-08-28T04:03:45.295Z,20
2022-08-28T04:19:12.656Z,20
2022-08-28T04:35:03.378Z,20
2022-08-28T04:51:09.627Z,20
2022-08-28T05:08:07.083Z,21
2022-08-28T05:25:25.229Z,21
2022-08-28T05:30:41.151Z,21
2022-08-28T05:35:56.932Z,21
2022-08-28T05:55:11.775Z,21
2022-08-28T06:00:27.493Z,21
2022-08-28T06:05:43.174Z,22
2022-08-28T06:10:58.926Z,22
2022-08-28T06:16:15.614Z,22
2022-08-28T06:21:31.956Z,22
2022-08-28T06:26:46.889Z,22
2022-08-28T06:32:02.272Z,23
2022-08-28T06:37:17.649Z,23
2022-08-28T06:42:32.918Z,23
2022-08-28T06:47:53.633Z,23
2022-08-28T06:53:11.787Z,23
2022-08-28T06:58:26.576Z,23
2022-08-28T07:03:44.849Z,23
2022-08-28T07:09:00.377Z,24
2022-08-28T07:14:14.429Z,24
2022-08-28T07:19:28.237Z,24
2022-08-28T07:24:42.030Z,24
2022-08-28T07:29:55.347Z,24
2022-08-28T07:35:09.330Z,25
2022-08-28T07:40:22.753Z,24
2022-08-28T07:45:35.933Z,25
2022-08-28T07:50:48.974Z,25
2022-08-28T07:56:01.799Z,25
2022-08-28T08:01:15.080Z,26
2022-08-28T08:06:34.666Z,26
2022-08-28T08:11:51.723Z,26
2022-08-28T08:17:07.922Z,26
2022-08-28T08:22:22.103Z,26
2022-08-28T08:27:34.588Z,27
2022-08-28T08:32:47.684Z,27
2022-08-28T08:38:13.353Z,27
2022-08-28T08:43:23.729Z,27
2022-08-28T08:48:36.226Z,27
2022-08-28T08:53:48.454Z,26
2022-08-28T08:59:00.790Z,27
2022-08-28T09:04:21.811Z,27
2022-08-28T09:09:32.207Z,27
2022-08-28T09:14:44.771Z,27
2022-08-28T09:19:57.199Z,27
2022-08-28T09:25:10.777Z,27
2022-08-28T09:30:31.516Z,27
2022-08-28T09:35:44.072Z,27
2022-08-28T09:40:56.522Z,27
2022-08-28T09:46:09.243Z,27
2022-08-28T09:51:21.655Z,27
2022-08-28T09:56:34.055Z,27
2022-08-28T10:01:46.715Z,27
2022-08-28T10:06:59.151Z,27
2022-08-28T10:12:11.411Z,27
2022-08-28T10:17:23.787Z,27
2022-08-28T10:22:36.066Z,27
2022-08-28T10:27:48.538Z,28
2022-08-28T10:33:01.255Z,27
2022-08-28T10:38:13.957Z,27
2022-08-28T10:43:26.669Z,28
2022-08-28T10:48:39.235Z,28
2022-08-28T10:53:51.646Z,28
2022-08-28T10:59:04.047Z,28
2022-08-28T11:04:26.166Z,28
2022-08-28T11:09:36.304Z,28
2022-08-28T11:14:49.454Z,29
2022-08-28T11:20:01.943Z,29
2022-08-28T11:25:14.884Z,30
2022-08-28T11:30:28.866Z,32
2022-08-28T11:51:12.424Z,29
2022-08-28T11:56:32.451Z,29
2022-08-28T12:01:48.733Z,29
2022-08-28T12:07:01.124Z,29
2022-08-28T12:12:13.555Z,29
2022-08-28T12:17:31.845Z,29
2022-08-28T12:22:44.984Z,29
2022-08-28T12:27:57.375Z,29
2022-08-28T12:33:09.804Z,29
2022-08-28T12:48:43.644Z,28
2022-08-28T12:53:56.235Z,28
2022-08-28T12:59:08.885Z,29
2022-08-28T13:04:23.371Z,29
2022-08-28T13:09:35.427Z,29
2022-08-28T13:14:48.226Z,29
2022-08-28T13:20:00.802Z,30
2022-08-28T13:25:16.981Z,30
2022-08-28T13:35:39.020Z,30
2022-08-28T13:46:01.996Z,29
2022-08-28T13:51:21.909Z,29
2022-08-28T13:56:37.391Z,29
2022-08-28T14:01:50.963Z,29
2022-08-28T14:07:04.410Z,29
2022-08-28T14:12:16.810Z,29
2022-08-28T14:17:29.266Z,29
2022-08-28T14:22:41.850Z,29
2022-08-28T14:27:54.109Z,28
2022-08-28T14:33:06.786Z,29
2022-08-28T14:38:19.959Z,30
2022-08-28T14:48:43.420Z,30
2022-08-28T14:53:55.449Z,29
2022-08-28T14:59:21.983Z,30
2022-08-28T15:04:34.118Z,30
2022-08-28T15:09:46.458Z,30
2022-08-28T15:14:58.769Z,30
2022-08-28T15:30:31.085Z,29
2022-08-28T15:46:03.461Z,28
2022-08-28T15:51:16.826Z,28
2022-08-28T15:56:28.783Z,28
2022-08-28T16:12:02.058Z,27
2022-08-28T16:22:24.979Z,27
2022-08-28T16:27:37.260Z,27
2022-08-28T16:32:54.590Z,27
2022-08-28T16:38:06.345Z,27
2022-08-28T16:43:18.713Z,27
2022-08-28T16:48:31.410Z,28
2022-08-28T16:53:44.120Z,28
2022-08-28T16:58:57.027Z,28
2022-08-28T17:09:23.751Z,27
2022-08-28T17:19:48.581Z,27
2022-08-28T17:25:00.966Z,26
2022-08-28T17:30:13.609Z,27
2022-08-28T17:35:25.882Z,27
2022-08-28T17:40:38.425Z,26
2022-08-28T17:45:50.707Z,26
2022-08-28T17:51:02.922Z,26
2022-08-28T17:56:15.055Z,26
2022-08-28T18:01:27.701Z,26
2022-08-28T18:11:49.707Z,25
2022-08-28T18:17:02.205Z,25
2022-08-28T18:22:16.341Z,25
2022-08-28T18:27:28.372Z,25
2022-08-28T18:32:42.310Z,25
2022-08-28T18:37:54.607Z,25
2022-08-28T18:43:06.909Z,25
2022-08-28T18:48:18.968Z,25
2022-08-28T18:53:43.170Z,25
2022-08-28T18:58:55.175Z,25
2022-08-28T19:04:07.826Z,24
2022-08-28T19:09:21.354Z,24
2022-08-28T19:14:33.651Z,24
2022-08-28T19:19:47.139Z,24
2022-08-28T19:24:59.675Z,24
2022-08-28T19:30:12.064Z,24
2022-08-28T19:35:25.435Z,24
2022-08-28T19:40:38.202Z,24
2022-08-28T19:45:50.951Z,24
2022-08-28T19:51:23.052Z,24
2022-08-28T19:56:32.634Z,24
2022-08-28T20:01:45.225Z,24
2022-08-28T20:06:58.036Z,24
2022-08-28T20:12:10.355Z,24
2022-08-28T20:17:22.805Z,24
2022-08-28T20:22:40.025Z,24
2022-08-28T20:27:59.619Z,23
2022-08-28T20:33:18.315Z,23
2022-08-28T20:38:33.895Z,23
2022-08-28T20:43:46.578Z,23
2022-08-28T20:48:59.089Z,23
2022-08-28T20:54:11.587Z,23
2022-08-28T20:59:24.117Z,23
2022-08-28T21:04:49.530Z,23
2022-08-28T21:10:08.579Z,23
2022-08-28T21:15:21.791Z,23
2022-08-28T21:20:34.425Z,23
2022-08-28T21:25:46.995Z,23
2022-08-28T21:31:00.140Z,23
2022-08-28T21:36:12.556Z,23
2022-08-28T21:41:25.304Z,23
2022-08-28T21:46:37.552Z,23
2022-08-28T21:51:50.158Z,22
2022-08-28T21:57:02.559Z,22
2022-08-28T22:02:15.060Z,22
2022-08-28T22:07:27.739Z,22
2022-08-28T22:12:40.137Z,22
2022-08-28T22:17:52.687Z,22
2022-08-28T22:23:05.069Z,22
2022-08-28T22:28:17.416Z,22
2022-08-28T22:33:30.008Z,22
2022-08-28T22:38:53.871Z,22
2022-08-28T22:44:03.667Z,22
2022-08-28T22:49:15.998Z,22
2022-08-28T22:54:28.347Z,22
2022-08-28T22:59:40.587Z,22
2022-08-28T23:04:53.036Z,22
2022-08-28T23:10:05.326Z,22
2022-08-28T23:15:17.596Z,22
2022-08-28T23:20:29.718Z,22
2022-08-28T23:25:41.777Z,22
2022-08-28T23:30:53.939Z,22
2022-08-28T23:36:06.006Z,22
2022-08-28T23:41:20.549Z,22
2022-08-28T23:46:32.962Z,22
2022-08-28T23:51:46.791Z,22
2022-08-28T23:56:58.255Z,22
